AFL7326 USCM-UWKD
Flight info
| Callsign | AFL7326 |
|---|---|
| Flight time | 1h 23m |
| Altitude | 30000 |
| Route | N0450F300 LANUD N985 ORTIM |
| Aircraft | A321/M-VGDW/C |
Departure
| Time | 2026-04-28 17:37 |
|---|---|
| Airport | Magnitogorsk International Airport (USCM) |
Arrival
| Time | 2026-04-28 19:01 |
|---|---|
| Airport | Kazan International Airport (UWKD) |
| Time | Latitude | Longitude | Altitude | Speed | Heading |
|---|---|---|---|---|---|
| 2026-04-28 17:17 | 53.39114 | 58.76049 | 1417 ft | 0 kts | 195° |
| 2026-04-28 17:30 | 53.39086 | 58.76017 | 1417 ft | 4 kts | 241° |
| 2026-04-28 17:30 | 53.39089 | 58.75980 | 1417 ft | 4 kts | 284° |
| 2026-04-28 17:31 | 53.39102 | 58.75934 | 1417 ft | 4 kts | 317° |
| 2026-04-28 17:31 | 53.39165 | 58.75943 | 1417 ft | 9 kts | 17° |
| 2026-04-28 17:32 | 53.39261 | 58.75991 | 1419 ft | 9 kts | 17° |
| 2026-04-28 17:32 | 53.39310 | 58.75980 | 1417 ft | 7 kts | 302° |
| 2026-04-28 17:32 | 53.39332 | 58.75879 | 1421 ft | 14 kts | 290° |
| 2026-04-28 17:32 | 53.39366 | 58.75666 | 1418 ft | 19 kts | 288° |
| 2026-04-28 17:33 | 53.39453 | 58.75631 | 1418 ft | 14 kts | 17° |
| 2026-04-28 17:33 | 53.39551 | 58.75685 | 1419 ft | 16 kts | 16° |
| 2026-04-28 17:33 | 53.39664 | 58.75739 | 1420 ft | 17 kts | 16° |
| 2026-04-28 17:33 | 53.39741 | 58.75776 | 1415 ft | 17 kts | 15° |
| 2026-04-28 17:34 | 53.39898 | 58.75848 | 1416 ft | 18 kts | 15° |
| 2026-04-28 17:34 | 53.40031 | 58.75912 | 1418 ft | 22 kts | 17° |
| 2026-04-28 17:34 | 53.40179 | 58.75985 | 1420 ft | 22 kts | 15° |
| 2026-04-28 17:34 | 53.40332 | 58.76055 | 1419 ft | 24 kts | 16° |
| 2026-04-28 17:35 | 53.40496 | 58.76137 | 1416 ft | 26 kts | 16° |
| 2026-04-28 17:35 | 53.40644 | 58.76228 | 1417 ft | 13 kts | 50° |
| 2026-04-28 17:35 | 53.40661 | 58.76282 | 1414 ft | 4 kts | 32° |
| 2026-04-28 17:35 | 53.40691 | 58.76264 | 1417 ft | 5 kts | 300° |
| 2026-04-28 17:36 | 53.40682 | 58.76229 | 1412 ft | 3 kts | 224° |
| 2026-04-28 17:36 | 53.40666 | 58.76218 | 1411 ft | 3 kts | 203° |
| 2026-04-28 17:36 | 53.40647 | 58.76209 | 1414 ft | 3 kts | 196° |
| 2026-04-28 17:36 | 53.40571 | 58.76172 | 1414 ft | 30 kts | 196° |
| 2026-04-28 17:37 | 53.40069 | 58.75928 | 1418 ft | 116 kts | 196° |
| 2026-04-28 17:37 | 53.39086 | 58.75465 | 1483 ft | 171 kts | 195° |
| 2026-04-28 17:37 | 53.37889 | 58.74943 | 2126 ft | 185 kts | 195° |
| 2026-04-28 17:37 | 53.36600 | 58.74398 | 2786 ft | 193 kts | 195° |
| 2026-04-28 17:38 | 53.35287 | 58.73846 | 3369 ft | 202 kts | 196° |
| 2026-04-28 17:38 | 53.33866 | 58.73221 | 3760 ft | 223 kts | 197° |
| 2026-04-28 17:38 | 53.32277 | 58.72536 | 4258 ft | 247 kts | 190° |
| 2026-04-28 17:38 | 53.30533 | 58.72859 | 5156 ft | 262 kts | 161° |
| 2026-04-28 17:39 | 53.29020 | 58.74633 | 6176 ft | 274 kts | 134° |
| 2026-04-28 17:39 | 53.28117 | 58.77489 | 7172 ft | 286 kts | 107° |
| 2026-04-28 17:39 | 53.28872 | 58.84065 | 9051 ft | 308 kts | 55° |
| 2026-04-28 17:40 | 53.30475 | 58.86523 | 9926 ft | 314 kts | 28° |
| 2026-04-28 17:40 | 53.32529 | 58.87760 | 10485 ft | 328 kts | 6° |
| 2026-04-28 17:40 | 53.34880 | 58.88091 | 10845 ft | 349 kts | 358° |
| 2026-04-28 17:40 | 53.37382 | 58.88415 | 11495 ft | 361 kts | 3° |
| 2026-04-28 17:41 | 53.39896 | 58.88984 | 12247 ft | 369 kts | 4° |
| 2026-04-28 17:41 | 53.42458 | 58.89653 | 13024 ft | 375 kts | 5° |
| 2026-04-28 17:41 | 53.45059 | 58.90380 | 13797 ft | 381 kts | 5° |
| 2026-04-28 17:41 | 53.47691 | 58.91130 | 14569 ft | 387 kts | 5° |
| 2026-04-28 17:42 | 53.50363 | 58.91882 | 15290 ft | 392 kts | 5° |
| 2026-04-28 17:42 | 53.52158 | 58.92379 | 15757 ft | 396 kts | 5° |
| 2026-04-28 17:42 | 53.55827 | 58.93382 | 16697 ft | 403 kts | 4° |
| 2026-04-28 17:42 | 53.58604 | 58.94136 | 17381 ft | 408 kts | 4° |
| 2026-04-28 17:43 | 53.61430 | 58.94900 | 18047 ft | 413 kts | 4° |
| 2026-04-28 17:43 | 53.64281 | 58.95666 | 18690 ft | 417 kts | 4° |
| 2026-04-28 17:43 | 53.67161 | 58.96441 | 19330 ft | 422 kts | 4° |
| 2026-04-28 17:43 | 53.70076 | 58.97206 | 19951 ft | 425 kts | 2° |
| 2026-04-28 17:44 | 53.73015 | 58.97333 | 20523 ft | 421 kts | 349° |
| 2026-04-28 17:44 | 53.75879 | 58.96510 | 21088 ft | 415 kts | 337° |
| 2026-04-28 17:44 | 53.78554 | 58.94817 | 21651 ft | 408 kts | 325° |
| 2026-04-28 17:44 | 53.80958 | 58.92359 | 22171 ft | 400 kts | 314° |
| 2026-04-28 17:45 | 53.83021 | 58.89274 | 22679 ft | 392 kts | 303° |
| 2026-04-28 17:45 | 53.84742 | 58.85747 | 23149 ft | 389 kts | 298° |
| 2026-04-28 17:45 | 53.86417 | 58.82132 | 23636 ft | 392 kts | 298° |
| 2026-04-28 17:45 | 53.88102 | 58.78492 | 24104 ft | 394 kts | 298° |
| 2026-04-28 17:46 | 53.89799 | 58.74824 | 24560 ft | 397 kts | 298° |
| 2026-04-28 17:46 | 53.91511 | 58.71129 | 25035 ft | 400 kts | 298° |
| 2026-04-28 17:46 | 53.93239 | 58.67403 | 25493 ft | 403 kts | 298° |
| 2026-04-28 17:46 | 53.94979 | 58.63645 | 25951 ft | 406 kts | 298° |
| 2026-04-28 17:47 | 53.96752 | 58.59810 | 26414 ft | 409 kts | 297° |
| 2026-04-28 17:47 | 53.98510 | 58.55996 | 26880 ft | 412 kts | 297° |
| 2026-04-28 17:47 | 54.00278 | 58.52148 | 27294 ft | 415 kts | 297° |
| 2026-04-28 17:47 | 54.01455 | 58.49584 | 27584 ft | 417 kts | 296° |
| 2026-04-28 17:48 | 54.03521 | 58.44116 | 28137 ft | 405 kts | 285° |
| 2026-04-28 17:48 | 54.04615 | 58.39762 | 28544 ft | 397 kts | 278° |
| 2026-04-28 17:48 | 54.05540 | 58.35308 | 28946 ft | 400 kts | 278° |
| 2026-04-28 17:48 | 54.06469 | 58.30825 | 29359 ft | 402 kts | 278° |
| 2026-04-28 17:49 | 54.07401 | 58.26326 | 29761 ft | 405 kts | 278° |
| 2026-04-28 17:49 | 54.08344 | 58.21789 | 30154 ft | 407 kts | 277° |
| 2026-04-28 17:49 | 54.09292 | 58.17232 | 30532 ft | 409 kts | 278° |
| 2026-04-28 17:49 | 54.10245 | 58.12635 | 30881 ft | 412 kts | 277° |
| 2026-04-28 17:50 | 54.11199 | 58.08016 | 31232 ft | 415 kts | 278° |
| 2026-04-28 17:50 | 54.12156 | 58.03376 | 31657 ft | 415 kts | 278° |
| 2026-04-28 17:50 | 54.13112 | 57.98742 | 32150 ft | 414 kts | 278° |
| 2026-04-28 17:50 | 54.14066 | 57.94112 | 32608 ft | 413 kts | 278° |
| 2026-04-28 17:51 | 54.15014 | 57.89492 | 33036 ft | 413 kts | 278° |
| 2026-04-28 17:51 | 54.15958 | 57.84864 | 33482 ft | 412 kts | 278° |
| 2026-04-28 17:51 | 54.16894 | 57.80249 | 33907 ft | 412 kts | 278° |
| 2026-04-28 17:51 | 54.17830 | 57.75629 | 34068 ft | 411 kts | 278° |
| 2026-04-28 17:52 | 54.18759 | 57.71089 | 34101 ft | 400 kts | 278° |
| 2026-04-28 17:52 | 54.21447 | 57.57779 | 34100 ft | 393 kts | 277° |
| 2026-04-28 17:53 | 54.23207 | 57.48954 | 34099 ft | 392 kts | 277° |
| 2026-04-28 17:53 | 54.24965 | 57.40129 | 34101 ft | 391 kts | 277° |
| 2026-04-28 17:54 | 54.26725 | 57.31250 | 34099 ft | 391 kts | 277° |
| 2026-04-28 17:54 | 54.28468 | 57.22435 | 34093 ft | 391 kts | 277° |
| 2026-04-28 17:55 | 54.30207 | 57.13619 | 34090 ft | 391 kts | 277° |
| 2026-04-28 17:55 | 54.31935 | 57.04803 | 34084 ft | 390 kts | 277° |
| 2026-04-28 17:56 | 54.33662 | 56.95920 | 34083 ft | 390 kts | 277° |
| 2026-04-28 17:56 | 54.35374 | 56.87101 | 34085 ft | 389 kts | 277° |
| 2026-04-28 17:57 | 54.37079 | 56.78299 | 34081 ft | 389 kts | 277° |
| 2026-04-28 17:57 | 54.38777 | 56.69506 | 34081 ft | 388 kts | 277° |
| 2026-04-28 17:58 | 54.40457 | 56.60708 | 34078 ft | 388 kts | 277° |
| 2026-04-28 17:58 | 54.42131 | 56.51903 | 34082 ft | 388 kts | 277° |
| 2026-04-28 17:59 | 54.43805 | 56.43099 | 34086 ft | 388 kts | 277° |
| 2026-04-28 17:59 | 54.45471 | 56.34294 | 34086 ft | 387 kts | 277° |
| 2026-04-28 18:00 | 54.47135 | 56.25434 | 34083 ft | 387 kts | 277° |
| 2026-04-28 18:00 | 54.48783 | 56.16631 | 34080 ft | 387 kts | 277° |
| 2026-04-28 18:01 | 54.50429 | 56.07829 | 34076 ft | 386 kts | 277° |
| 2026-04-28 18:01 | 54.52059 | 55.99023 | 34071 ft | 386 kts | 277° |
| 2026-04-28 18:02 | 54.53417 | 55.91635 | 34072 ft | 386 kts | 277° |
| 2026-04-28 18:02 | 54.55027 | 55.82822 | 34070 ft | 385 kts | 277° |
| 2026-04-28 18:03 | 54.56602 | 55.73992 | 34071 ft | 385 kts | 276° |
| 2026-04-28 18:03 | 54.58163 | 55.65175 | 34070 ft | 385 kts | 277° |
| 2026-04-28 18:04 | 54.59730 | 55.56340 | 34069 ft | 385 kts | 277° |
| 2026-04-28 18:04 | 54.61289 | 55.47512 | 34065 ft | 385 kts | 277° |
| 2026-04-28 18:05 | 54.62595 | 55.40094 | 34068 ft | 385 kts | 277° |
| 2026-04-28 18:05 | 54.64397 | 55.29756 | 34069 ft | 385 kts | 276° |
| 2026-04-28 18:06 | 54.65929 | 55.20900 | 34069 ft | 385 kts | 276° |
| 2026-04-28 18:06 | 54.67402 | 55.12029 | 34068 ft | 383 kts | 276° |
| 2026-04-28 18:07 | 54.68828 | 55.03164 | 34065 ft | 383 kts | 276° |
| 2026-04-28 18:07 | 54.70254 | 54.94277 | 34063 ft | 384 kts | 276° |
| 2026-04-28 18:08 | 54.71679 | 54.85375 | 34064 ft | 384 kts | 276° |
| 2026-04-28 18:08 | 54.73102 | 54.76482 | 34062 ft | 384 kts | 276° |
| 2026-04-28 18:09 | 54.74532 | 54.67518 | 34057 ft | 384 kts | 276° |
| 2026-04-28 18:09 | 54.75946 | 54.58611 | 34053 ft | 384 kts | 276° |
| 2026-04-28 18:10 | 54.77349 | 54.49697 | 34045 ft | 384 kts | 276° |
| 2026-04-28 18:10 | 54.78751 | 54.40712 | 34039 ft | 384 kts | 276° |
| 2026-04-28 18:11 | 54.80147 | 54.31727 | 34037 ft | 383 kts | 276° |
| 2026-04-28 18:11 | 54.81525 | 54.22798 | 34031 ft | 383 kts | 275° |
| 2026-04-28 18:12 | 54.82901 | 54.13882 | 34021 ft | 383 kts | 276° |
| 2026-04-28 18:12 | 54.84287 | 54.04964 | 34015 ft | 383 kts | 276° |
| 2026-04-28 18:13 | 54.85658 | 53.96043 | 34015 ft | 382 kts | 276° |
| 2026-04-28 18:13 | 54.87023 | 53.87117 | 34010 ft | 382 kts | 276° |
| 2026-04-28 18:14 | 54.88390 | 53.78127 | 34006 ft | 382 kts | 276° |
| 2026-04-28 18:14 | 54.89731 | 53.69198 | 33998 ft | 382 kts | 276° |
| 2026-04-28 18:15 | 54.91076 | 53.60288 | 33989 ft | 381 kts | 276° |
| 2026-04-28 18:15 | 54.92422 | 53.51372 | 33981 ft | 381 kts | 276° |
| 2026-04-28 18:16 | 54.93758 | 53.42449 | 33975 ft | 381 kts | 276° |
| 2026-04-28 18:16 | 54.95084 | 53.33526 | 33965 ft | 380 kts | 276° |
| 2026-04-28 18:17 | 54.96411 | 53.24554 | 33960 ft | 381 kts | 276° |
| 2026-04-28 18:17 | 54.97720 | 53.15628 | 33959 ft | 381 kts | 276° |
| 2026-04-28 18:18 | 54.99014 | 53.06708 | 33955 ft | 380 kts | 276° |
| 2026-04-28 18:18 | 55.00084 | 52.99289 | 33938 ft | 380 kts | 276° |
| 2026-04-28 18:19 | 55.01582 | 52.88843 | 33934 ft | 380 kts | 276° |
| 2026-04-28 18:19 | 55.02860 | 52.79913 | 33933 ft | 380 kts | 276° |
| 2026-04-28 18:20 | 55.04138 | 52.70971 | 33928 ft | 380 kts | 276° |
| 2026-04-28 18:20 | 55.05407 | 52.62019 | 33926 ft | 380 kts | 276° |
| 2026-04-28 18:21 | 55.06673 | 52.53078 | 33923 ft | 380 kts | 276° |
| 2026-04-28 18:21 | 55.07926 | 52.44112 | 33918 ft | 380 kts | 276° |
| 2026-04-28 18:22 | 55.09177 | 52.35132 | 33914 ft | 380 kts | 275° |
| 2026-04-28 18:22 | 55.10418 | 52.26150 | 33914 ft | 380 kts | 275° |
| 2026-04-28 18:23 | 55.11649 | 52.17166 | 33913 ft | 381 kts | 275° |
| 2026-04-28 18:23 | 55.12876 | 52.08164 | 33913 ft | 381 kts | 275° |
| 2026-04-28 18:24 | 55.13902 | 52.00624 | 33912 ft | 381 kts | 275° |
| 2026-04-28 18:24 | 55.14712 | 51.94615 | 33541 ft | 388 kts | 275° |
| 2026-04-28 18:24 | 55.15334 | 51.89932 | 32232 ft | 402 kts | 275° |
| 2026-04-28 18:25 | 55.15979 | 51.85101 | 31334 ft | 403 kts | 275° |
| 2026-04-28 18:25 | 55.16623 | 51.80333 | 30457 ft | 403 kts | 275° |
| 2026-04-28 18:25 | 55.17271 | 51.75565 | 29578 ft | 402 kts | 275° |
| 2026-04-28 18:26 | 55.18541 | 51.66095 | 27822 ft | 398 kts | 275° |
| 2026-04-28 18:26 | 55.19157 | 51.61476 | 26921 ft | 378 kts | 274° |
| 2026-04-28 18:26 | 55.19747 | 51.57117 | 25931 ft | 359 kts | 274° |
| 2026-04-28 18:26 | 55.20301 | 51.52985 | 25343 ft | 341 kts | 274° |
| 2026-04-28 18:27 | 55.20824 | 51.49001 | 24930 ft | 330 kts | 273° |
| 2026-04-28 18:27 | 55.21324 | 51.45139 | 24522 ft | 321 kts | 273° |
| 2026-04-28 18:27 | 55.21806 | 51.41385 | 24127 ft | 312 kts | 273° |
| 2026-04-28 18:27 | 55.22276 | 51.37711 | 23742 ft | 306 kts | 272° |
| 2026-04-28 18:28 | 55.22738 | 51.34078 | 23347 ft | 305 kts | 273° |
| 2026-04-28 18:28 | 55.23198 | 51.30451 | 22952 ft | 304 kts | 273° |
| 2026-04-28 18:28 | 55.23661 | 51.26834 | 22556 ft | 304 kts | 273° |
| 2026-04-28 18:28 | 55.24122 | 51.23229 | 22159 ft | 304 kts | 273° |
| 2026-04-28 18:29 | 55.24584 | 51.19617 | 21756 ft | 303 kts | 274° |
| 2026-04-28 18:29 | 55.24896 | 51.17192 | 21488 ft | 303 kts | 274° |
| 2026-04-28 18:29 | 55.25358 | 51.13599 | 21090 ft | 302 kts | 274° |
| 2026-04-28 18:29 | 55.25814 | 51.10009 | 20673 ft | 301 kts | 274° |
| 2026-04-28 18:30 | 55.26266 | 51.06434 | 20262 ft | 300 kts | 274° |
| 2026-04-28 18:30 | 55.26565 | 51.04073 | 19962 ft | 299 kts | 274° |
| 2026-04-28 18:30 | 55.27281 | 50.99356 | 19788 ft | 302 kts | 279° |
| 2026-04-28 18:30 | 55.27925 | 50.95835 | 19721 ft | 303 kts | 279° |
| 2026-04-28 18:31 | 55.28564 | 50.92307 | 19652 ft | 304 kts | 279° |
| 2026-04-28 18:31 | 55.29200 | 50.88764 | 19585 ft | 304 kts | 279° |
| 2026-04-28 18:31 | 55.29832 | 50.85232 | 19532 ft | 304 kts | 279° |
| 2026-04-28 18:31 | 55.30469 | 50.81665 | 19454 ft | 313 kts | 279° |
| 2026-04-28 18:32 | 55.31118 | 50.77929 | 19203 ft | 324 kts | 279° |
| 2026-04-28 18:32 | 55.31766 | 50.74120 | 18947 ft | 326 kts | 279° |
| 2026-04-28 18:32 | 55.32411 | 50.70307 | 18699 ft | 326 kts | 279° |
| 2026-04-28 18:32 | 55.32979 | 50.66484 | 18444 ft | 321 kts | 273° |
| 2026-04-28 18:33 | 55.33345 | 50.62610 | 17621 ft | 324 kts | 272° |
| 2026-04-28 18:33 | 55.33685 | 50.58681 | 16682 ft | 323 kts | 272° |
| 2026-04-28 18:33 | 55.34006 | 50.54862 | 15754 ft | 311 kts | 272° |
| 2026-04-28 18:33 | 55.34316 | 50.51152 | 14821 ft | 304 kts | 272° |
| 2026-04-28 18:34 | 55.34619 | 50.47508 | 13893 ft | 299 kts | 272° |
| 2026-04-28 18:34 | 55.34919 | 50.43917 | 12967 ft | 295 kts | 272° |
| 2026-04-28 18:34 | 55.35213 | 50.40384 | 12004 ft | 289 kts | 272° |
| 2026-04-28 18:34 | 55.35506 | 50.36795 | 11159 ft | 298 kts | 272° |
| 2026-04-28 18:35 | 55.35799 | 50.33266 | 10876 ft | 286 kts | 272° |
| 2026-04-28 18:35 | 55.36089 | 50.29823 | 10490 ft | 277 kts | 272° |
| 2026-04-28 18:35 | 55.36366 | 50.26508 | 10137 ft | 269 kts | 272° |
| 2026-04-28 18:35 | 55.36632 | 50.23314 | 9822 ft | 261 kts | 272° |
| 2026-04-28 18:36 | 55.36888 | 50.20197 | 9660 ft | 256 kts | 272° |
| 2026-04-28 18:36 | 55.37139 | 50.17103 | 9535 ft | 256 kts | 272° |
| 2026-04-28 18:36 | 55.37577 | 50.14056 | 9408 ft | 261 kts | 284° |
| 2026-04-28 18:36 | 55.38228 | 50.11079 | 9283 ft | 261 kts | 284° |
| 2026-04-28 18:37 | 55.38875 | 50.08096 | 9056 ft | 261 kts | 284° |
| 2026-04-28 18:37 | 55.39519 | 50.05126 | 8595 ft | 258 kts | 284° |
| 2026-04-28 18:37 | 55.40157 | 50.02183 | 8117 ft | 257 kts | 284° |
| 2026-04-28 18:37 | 55.40791 | 49.99259 | 7637 ft | 255 kts | 284° |
| 2026-04-28 18:38 | 55.41420 | 49.96351 | 7152 ft | 254 kts | 284° |
| 2026-04-28 18:38 | 55.42048 | 49.93454 | 6674 ft | 252 kts | 283° |
| 2026-04-28 18:38 | 55.42660 | 49.90583 | 6203 ft | 252 kts | 283° |
| 2026-04-28 18:38 | 55.43271 | 49.87713 | 5725 ft | 250 kts | 283° |
| 2026-04-28 18:39 | 55.43886 | 49.84845 | 5263 ft | 250 kts | 283° |
| 2026-04-28 18:39 | 55.44500 | 49.81991 | 4793 ft | 249 kts | 283° |
| 2026-04-28 18:39 | 55.45116 | 49.79133 | 4336 ft | 249 kts | 284° |
| 2026-04-28 18:39 | 55.45724 | 49.76298 | 3968 ft | 247 kts | 284° |
| 2026-04-28 18:40 | 55.46333 | 49.73457 | 3522 ft | 248 kts | 284° |
| 2026-04-28 18:40 | 55.46934 | 49.70634 | 3272 ft | 240 kts | 283° |
| 2026-04-28 18:40 | 55.47504 | 49.67975 | 3214 ft | 224 kts | 283° |
| 2026-04-28 18:40 | 55.48039 | 49.65497 | 3164 ft | 207 kts | 282° |
| 2026-04-28 18:41 | 55.48530 | 49.63226 | 3064 ft | 191 kts | 282° |
| 2026-04-28 18:41 | 55.48982 | 49.61112 | 2984 ft | 179 kts | 281° |
| 2026-04-28 18:41 | 55.49412 | 49.59076 | 2911 ft | 175 kts | 281° |
| 2026-04-28 18:41 | 55.49831 | 49.57074 | 2834 ft | 174 kts | 282° |
| 2026-04-28 18:42 | 55.50259 | 49.55050 | 2757 ft | 174 kts | 284° |
| 2026-04-28 18:42 | 55.50828 | 49.53168 | 2729 ft | 178 kts | 293° |
| 2026-04-28 18:42 | 55.51504 | 49.51312 | 2730 ft | 174 kts | 295° |
| 2026-04-28 18:42 | 55.52131 | 49.49692 | 2722 ft | 152 kts | 295° |
| 2026-04-28 18:43 | 55.52712 | 49.48195 | 2730 ft | 142 kts | 293° |
| 2026-04-28 18:43 | 55.53249 | 49.46816 | 2616 ft | 132 kts | 293° |
| 2026-04-28 18:43 | 55.53765 | 49.45491 | 2475 ft | 130 kts | 294° |
| 2026-04-28 18:43 | 55.54275 | 49.44181 | 2323 ft | 129 kts | 294° |
| 2026-04-28 18:44 | 55.54783 | 49.42879 | 2150 ft | 129 kts | 295° |
| 2026-04-28 18:44 | 55.55798 | 49.40277 | 1816 ft | 128 kts | 296° |
| 2026-04-28 18:44 | 55.56304 | 49.38982 | 1648 ft | 128 kts | 296° |
| 2026-04-28 18:45 | 55.56810 | 49.37683 | 1473 ft | 129 kts | 298° |
| 2026-04-28 18:45 | 55.57317 | 49.36383 | 1307 ft | 128 kts | 298° |
| 2026-04-28 18:45 | 55.57823 | 49.35085 | 1136 ft | 128 kts | 298° |
| 2026-04-28 18:45 | 55.58328 | 49.33787 | 962 ft | 128 kts | 299° |
| 2026-04-28 18:46 | 55.58831 | 49.32496 | 797 ft | 127 kts | 299° |
| 2026-04-28 18:46 | 55.59330 | 49.31209 | 636 ft | 127 kts | 298° |
| 2026-04-28 18:46 | 55.59828 | 49.29931 | 464 ft | 126 kts | 298° |
| 2026-04-28 18:46 | 55.60331 | 49.28687 | 421 ft | 122 kts | 300° |
| 2026-04-28 18:47 | 55.60921 | 49.27238 | 871 ft | 170 kts | 301° |
| 2026-04-28 18:47 | 55.61632 | 49.25385 | 1405 ft | 192 kts | 299° |
| 2026-04-28 18:47 | 55.62369 | 49.23381 | 2213 ft | 189 kts | 300° |
| 2026-04-28 18:47 | 55.63082 | 49.21415 | 2592 ft | 188 kts | 298° |
| 2026-04-28 18:48 | 55.63805 | 49.19519 | 2768 ft | 185 kts | 297° |
| 2026-04-28 18:48 | 55.64573 | 49.17693 | 3105 ft | 185 kts | 298° |
| 2026-04-28 18:48 | 55.65352 | 49.15849 | 3612 ft | 185 kts | 291° |
| 2026-04-28 18:48 | 55.65595 | 49.13746 | 3961 ft | 170 kts | 255° |
| 2026-04-28 18:49 | 55.65030 | 49.12077 | 4009 ft | 159 kts | 216° |
| 2026-04-28 18:49 | 55.64713 | 49.11782 | 4008 ft | 160 kts | 202° |
| 2026-04-28 18:49 | 55.62851 | 49.12461 | 4003 ft | 174 kts | 162° |
| 2026-04-28 18:49 | 55.61784 | 49.13492 | 4004 ft | 178 kts | 154° |
| 2026-04-28 18:50 | 55.60881 | 49.15077 | 4015 ft | 183 kts | 145° |
| 2026-04-28 18:50 | 55.59886 | 49.16390 | 4016 ft | 177 kts | 156° |
| 2026-04-28 18:50 | 55.58835 | 49.17510 | 4002 ft | 176 kts | 159° |
| 2026-04-28 18:50 | 55.57781 | 49.18605 | 4005 ft | 176 kts | 158° |
| 2026-04-28 18:51 | 55.56695 | 49.19744 | 4028 ft | 190 kts | 158° |
| 2026-04-28 18:51 | 55.55545 | 49.20968 | 4016 ft | 195 kts | 157° |
| 2026-04-28 18:51 | 55.54387 | 49.22233 | 4001 ft | 196 kts | 156° |
| 2026-04-28 18:51 | 55.53218 | 49.23530 | 4001 ft | 196 kts | 156° |
| 2026-04-28 18:52 | 55.52077 | 49.24809 | 4010 ft | 197 kts | 156° |
| 2026-04-28 18:52 | 55.50965 | 49.26073 | 4004 ft | 182 kts | 156° |
| 2026-04-28 18:52 | 55.49903 | 49.27284 | 3927 ft | 179 kts | 156° |
| 2026-04-28 18:52 | 55.48866 | 49.28458 | 3686 ft | 176 kts | 156° |
| 2026-04-28 18:53 | 55.47870 | 49.29727 | 3437 ft | 181 kts | 144° |
| 2026-04-28 18:53 | 55.47101 | 49.31527 | 3185 ft | 185 kts | 133° |
| 2026-04-28 18:53 | 55.46382 | 49.33394 | 2932 ft | 184 kts | 133° |
| 2026-04-28 18:53 | 55.45669 | 49.35235 | 2762 ft | 179 kts | 133° |
| 2026-04-28 18:54 | 55.44968 | 49.37035 | 2713 ft | 178 kts | 133° |
| 2026-04-28 18:54 | 55.44280 | 49.38848 | 2723 ft | 181 kts | 127° |
| 2026-04-28 18:54 | 55.44029 | 49.41081 | 2724 ft | 196 kts | 89° |
| 2026-04-28 18:54 | 55.44634 | 49.43266 | 2721 ft | 205 kts | 50° |
| 2026-04-28 18:55 | 55.45614 | 49.45091 | 2726 ft | 206 kts | 49° |
| 2026-04-28 18:55 | 55.46270 | 49.46297 | 2719 ft | 205 kts | 48° |
| 2026-04-28 18:55 | 55.47665 | 49.48608 | 2712 ft | 207 kts | 33° |
| 2026-04-28 18:55 | 55.48963 | 49.49620 | 2718 ft | 204 kts | 11° |
| 2026-04-28 18:56 | 55.50358 | 49.49797 | 2720 ft | 199 kts | 348° |
| 2026-04-28 18:56 | 55.51647 | 49.49176 | 2723 ft | 180 kts | 327° |
| 2026-04-28 18:56 | 55.52612 | 49.48086 | 2722 ft | 153 kts | 309° |
| 2026-04-28 18:56 | 55.53265 | 49.46761 | 2609 ft | 135 kts | 293° |
| 2026-04-28 18:57 | 55.53787 | 49.45429 | 2468 ft | 130 kts | 294° |
| 2026-04-28 18:57 | 55.54296 | 49.44125 | 2311 ft | 128 kts | 294° |
| 2026-04-28 18:57 | 55.54800 | 49.42833 | 2147 ft | 128 kts | 295° |
| 2026-04-28 18:57 | 55.55303 | 49.41547 | 1982 ft | 127 kts | 295° |
| 2026-04-28 18:58 | 55.55810 | 49.40247 | 1811 ft | 127 kts | 296° |
| 2026-04-28 18:58 | 55.56313 | 49.38958 | 1644 ft | 127 kts | 296° |
| 2026-04-28 18:58 | 55.56816 | 49.37669 | 1463 ft | 128 kts | 298° |
| 2026-04-28 18:58 | 55.57319 | 49.36378 | 1306 ft | 127 kts | 298° |
| 2026-04-28 18:59 | 55.57822 | 49.35087 | 1137 ft | 127 kts | 298° |
| 2026-04-28 18:59 | 55.58323 | 49.33800 | 966 ft | 127 kts | 299° |
| 2026-04-28 18:59 | 55.58822 | 49.32517 | 801 ft | 126 kts | 299° |
| 2026-04-28 18:59 | 55.59321 | 49.31237 | 630 ft | 126 kts | 298° |
| 2026-04-28 19:00 | 55.59820 | 49.29964 | 462 ft | 126 kts | 298° |
| 2026-04-28 19:00 | 55.60145 | 49.29136 | 412 ft | 118 kts | 300° |
| 2026-04-28 19:00 | 55.60494 | 49.28205 | 409 ft | 59 kts | 304° |
| 2026-04-28 19:00 | 55.60712 | 49.27634 | 414 ft | 54 kts | 304° |
| 2026-04-28 19:01 | 55.60927 | 49.27087 | 410 ft | 50 kts | 306° |
| 2026-04-28 19:01 | 55.61051 | 49.26785 | 410 ft | 10 kts | 313° |
| 2026-04-28 19:01 | 55.61098 | 49.26784 | 418 ft | 6 kts | 32° |
| 2026-04-28 19:01 | 55.61133 | 49.26827 | 414 ft | 6 kts | 33° |
| 2026-04-28 19:02 | 55.61137 | 49.26831 | 419 ft | 0 kts | 33° |
| 2026-04-28 19:03 | 55.61138 | 49.26832 | 419 ft | 1 kts | 33° |
| 2026-04-28 19:03 | 55.61156 | 49.26853 | 414 ft | 6 kts | 33° |
| 2026-04-28 19:03 | 55.61201 | 49.26905 | 413 ft | 9 kts | 33° |
| 2026-04-28 19:03 | 55.61218 | 49.26932 | 414 ft | 2 kts | 65° |
| 2026-04-28 19:04 | 55.61219 | 49.26968 | 416 ft | 5 kts | 85° |
| 2026-04-28 19:04 | 55.61207 | 49.27037 | 408 ft | 7 kts | 128° |
| 2026-04-28 19:04 | 55.61176 | 49.27105 | 409 ft | 8 kts | 127° |
| 2026-04-28 19:04 | 55.61142 | 49.27200 | 411 ft | 11 kts | 124° |
| 2026-04-28 19:05 | 55.61089 | 49.27336 | 410 ft | 15 kts | 124° |
| 2026-04-28 19:05 | 55.61024 | 49.27503 | 409 ft | 17 kts | 124° |
| 2026-04-28 19:05 | 55.60954 | 49.27683 | 414 ft | 19 kts | 124° |
| 2026-04-28 19:05 | 55.60877 | 49.27876 | 411 ft | 20 kts | 124° |
| 2026-04-28 19:06 | 55.60798 | 49.28087 | 414 ft | 21 kts | 125° |
| 2026-04-28 19:06 | 55.60740 | 49.28232 | 416 ft | 22 kts | 125° |
| 2026-04-28 19:06 | 55.60617 | 49.28552 | 406 ft | 24 kts | 124° |
| 2026-04-28 19:06 | 55.60591 | 49.28766 | 416 ft | 12 kts | 94° |
| 2026-04-28 19:07 | 55.60582 | 49.28921 | 412 ft | 13 kts | 98° |
| 2026-04-28 19:07 | 55.60581 | 49.29082 | 412 ft | 13 kts | 75° |
| 2026-04-28 19:07 | 55.60635 | 49.29210 | 406 ft | 13 kts | 35° |
| 2026-04-28 19:07 | 55.60710 | 49.29301 | 413 ft | 13 kts | 34° |
| 2026-04-28 19:08 | 55.60785 | 49.29391 | 416 ft | 13 kts | 34° |
| 2026-04-28 19:08 | 55.60801 | 49.29502 | 413 ft | 10 kts | 115° |
| 2026-04-28 19:08 | 55.60763 | 49.29610 | 406 ft | 11 kts | 125° |
| 2026-04-28 19:08 | 55.60735 | 49.29679 | 413 ft | 3 kts | 124° |
| 2026-04-28 19:09 | 55.60693 | 49.29788 | 406 ft | 15 kts | 126° |
| 2026-04-28 19:09 | 55.60667 | 49.29896 | 416 ft | 7 kts | 78° |
| 2026-04-28 19:09 | 55.60700 | 49.29949 | 412 ft | 7 kts | 28° |
| 2026-04-28 19:09 | 55.60715 | 49.29963 | 411 ft | 0 kts | 30° |